Time;durP1;ratioP1;P1;durP2;ratioP2;P2;SDS_P1;SDS_P2;PMS_P1;PMS_P2;Temp;Humidity;BMP_temperature;BMP_pressure;BME280_temperature;BME280_humidity;BME280_pressure;Samples;Min_cycle;Max_cycle;Signal;HPM_P1;HPM_P2
2021/08/13 00:00:12;;;;;;;3.47;1.20;;;;;;;21.36;55.76;101270.28;5050981;28;20275;-60
2021/08/13 00:02:37;;;;;;;5.20;1.40;;;;;;;21.37;55.60;101265.78;5057214;28;20041;-59
2021/08/13 00:05:03;;;;;;;4.18;1.30;;;;;;;21.36;55.37;101259.63;5056936;28;20033;-59
2021/08/13 00:07:28;;;;;;;4.25;1.70;;;;;;;21.36;55.66;101256.13;5057732;28;20106;-59
2021/08/13 00:09:54;;;;;;;5.28;1.30;;;;;;;21.36;55.30;101259.63;5062743;28;20399;-59
2021/08/13 00:12:19;;;;;;;3.72;1.38;;;;;;;21.36;55.52;101251.59;5057067;28;20419;-59
2021/08/13 00:14:45;;;;;;;3.22;1.20;;;;;;;21.36;55.60;101248.13;5059722;28;20041;-59
2021/08/13 00:17:10;;;;;;;5.10;1.50;;;;;;;21.35;55.74;101252.63;5062474;28;20036;-59
2021/08/13 00:19:36;;;;;;;5.57;1.60;;;;;;;21.36;55.59;101248.13;5062436;28;20037;-59
2021/08/13 00:22:01;;;;;;;4.30;1.20;;;;;;;21.35;55.65;101241.97;5069234;28;20127;-59
2021/08/13 00:24:27;;;;;;;4.85;1.30;;;;;;;21.36;55.51;101248.13;5064425;28;20037;-59
2021/08/13 00:26:52;;;;;;;6.05;1.60;;;;;;;21.35;55.32;101247.28;5061869;28;20448;-59
2021/08/13 00:29:18;;;;;;;5.22;1.40;;;;;;;21.35;55.80;101251.81;5051250;28;20052;-59
2021/08/13 00:31:43;;;;;;;3.28;1.10;;;;;;;21.36;55.19;101262.28;5061841;28;20463;-60
2021/08/13 00:34:08;;;;;;;4.38;1.40;;;;;;;21.35;55.26;101255.31;5049405;28;20396;-59
2021/08/13 00:36:34;;;;;;;3.60;1.50;;;;;;;21.35;55.75;101260.63;5048737;28;20032;-59
2021/08/13 00:39:02;;;;;;;3.53;1.27;;;;;;;21.35;55.24;101259.81;5062782;28;20020;-59
2021/08/13 00:41:29;;;;;;;6.90;1.25;;;;;;;21.35;55.61;101251.81;5055543;28;20199;-59
2021/08/13 00:43:54;;;;;;;4.20;1.55;;;;;;;21.34;55.14;101253.66;5042226;28;20044;-60
2021/08/13 00:46:20;;;;;;;3.25;1.30;;;;;;;21.34;55.38;101250.16;5043235;28;20044;-59
2021/08/13 00:48:45;;;;;;;3.92;1.38;;;;;;;21.34;55.21;101245.66;5064936;28;20120;-59
2021/08/13 00:51:11;;;;;;;5.03;1.40;;;;;;;21.34;55.43;101244.81;5069993;28;20108;-59
2021/08/13 00:53:37;;;;;;;4.95;1.65;;;;;;;21.34;55.40;101256.31;5055917;28;20091;-59
2021/08/13 00:56:02;;;;;;;4.65;1.23;;;;;;;21.34;55.56;101252.84;5058439;28;20040;-59
2021/08/13 00:58:28;;;;;;;3.20;1.10;;;;;;;21.33;55.38;101260.00;5045465;28;20075;-59
2021/08/13 01:00:54;;;;;;;4.50;1.35;;;;;;;21.33;55.64;101254.69;5063197;28;20039;-60
2021/08/13 01:03:20;;;;;;;4.07;1.42;;;;;;;21.33;55.60;101249.34;5062601;28;20052;-59
2021/08/13 01:05:46;;;;;;;3.80;1.20;;;;;;;21.32;55.68;101255.69;5044322;28;20065;-59
2021/08/13 01:08:12;;;;;;;3.80;1.40;;;;;;;21.33;55.50;101253.84;5069887;28;20585;-59
2021/08/13 01:10:46;;;;;;;3.67;1.38;;;;;;;21.31;55.73;101254.06;5057043;28;20032;-59
2021/08/13 01:13:15;;;;;;;3.95;1.50;;;;;;;21.33;55.14;101251.19;5069741;28;20041;-59
2021/08/13 01:15:48;;;;;;;3.58;1.10;;;;;;;21.32;55.60;101252.22;5042332;28;20047;-60
2021/08/13 01:18:33;;;;;;;3.05;1.05;;;;;;;21.30;55.58;101247.03;5068519;28;20033;-59
2021/08/13 01:21:23;;;;;;;3.78;1.52;;;;;;;21.27;55.59;101244.78;5063648;28;20028;-59
2021/08/13 01:24:15;;;;;;;4.00;1.35;;;;;;;21.26;55.30;101237.78;5059191;28;20033;-59
2021/08/13 01:26:56;;;;;;;2.42;1.00;;;;;;;21.30;55.33;101243.56;5035883;28;20044;-59
2021/08/13 01:29:44;;;;;;;4.38;1.20;;;;;;;21.27;55.60;101239.44;5069127;28;20067;-59
2021/08/13 01:32:12;;;;;;;4.20;1.05;;;;;;;21.30;55.55;101241.69;5051040;28;20032;-59
2021/08/13 01:35:06;;;;;;;3.58;1.10;;;;;;;21.25;55.45;101236.16;5060944;28;20021;-59
2021/08/13 01:37:34;;;;;;;5.45;1.25;;;;;;;21.29;55.35;101226.72;5060500;28;20032;-59
2021/08/13 01:40:03;;;;;;;3.78;1.10;;;;;;;21.29;55.39;101224.06;5063289;28;20070;-62
2021/08/13 01:42:31;;;;;;;3.78;1.30;;;;;;;21.30;55.49;101230.22;5068054;28;20025;-59
2021/08/13 01:44:58;;;;;;;3.63;1.30;;;;;;;21.29;55.58;101232.06;5035714;28;20111;-60
2021/08/13 01:47:24;;;;;;;4.05;1.27;;;;;;;21.30;55.66;101235.53;5047363;28;20082;-59
2021/08/13 01:49:51;;;;;;;4.95;1.27;;;;;;;21.29;55.64;101232.06;5051020;28;20037;-59
2021/08/13 01:52:18;;;;;;;4.43;1.40;;;;;;;21.30;55.62;101232.88;5046602;28;20473;-59
2021/08/13 01:54:44;;;;;;;3.80;1.33;;;;;;;21.29;55.44;101240.06;5059675;28;20029;-59
2021/08/13 01:57:11;;;;;;;4.25;1.20;;;;;;;21.29;55.57;101242.72;5063587;28;20032;-59
2021/08/13 01:59:36;;;;;;;3.28;1.30;;;;;;;21.30;55.29;101243.56;5049357;28;20111;-59
2021/08/13 02:02:02;;;;;;;3.00;1.00;;;;;;;21.29;55.43;101234.72;5059880;28;20162;-59
2021/08/13 02:04:28;;;;;;;4.15;1.50;;;;;;;21.30;55.31;101230.22;5068669;28;20391;-59
2021/08/13 02:06:55;;;;;;;2.70;1.10;;;;;;;21.29;55.62;101239.25;5053925;28;20070;-59
2021/08/13 02:09:21;;;;;;;3.47;1.15;;;;;;;21.29;55.28;101237.38;5065087;28;20048;-59
2021/08/13 02:11:46;;;;;;;3.47;1.30;;;;;;;21.28;55.49;101230.41;5056737;28;20037;-60
2021/08/13 02:14:14;;;;;;;3.50;1.23;;;;;;;21.29;55.32;101231.22;5067031;28;20035;-59
2021/08/13 02:16:44;;;;;;;4.07;1.35;;;;;;;21.28;55.51;101227.75;5057714;28;20044;-59
2021/08/13 02:19:15;;;;;;;3.92;1.50;;;;;;;21.28;55.48;101222.41;5054181;28;20025;-59
2021/08/13 02:21:44;;;;;;;5.50;1.23;;;;;;;21.28;55.44;101226.91;5058677;28;20118;-59
2021/08/13 02:24:10;;;;;;;5.45;1.23;;;;;;;21.28;55.75;101219.72;5048072;28;20112;-59
2021/08/13 02:26:36;;;;;;;4.47;1.38;;;;;;;21.27;55.85;101222.59;5066769;28;20032;-60
2021/08/13 02:29:02;;;;;;;4.18;1.27;;;;;;;21.28;55.52;101218.91;5049816;28;20560;-59
2021/08/13 02:31:28;;;;;;;3.95;1.25;;;;;;;21.26;55.42;101208.44;5044258;28;20044;-59
2021/08/13 02:33:54;;;;;;;3.35;1.30;;;;;;;21.27;55.63;101198.59;5059916;28;20111;-59
2021/08/13 02:36:29;;;;;;;4.57;1.30;;;;;;;21.26;55.54;101202.28;5068393;28;20108;-59
2021/08/13 02:39:00;;;;;;;5.85;1.50;;;;;;;21.26;55.45;101200.44;5055626;28;20033;-59
2021/08/13 02:41:30;;;;;;;3.85;1.20;;;;;;;21.27;55.61;101202.09;5047427;28;20090;-59
2021/08/13 02:44:03;;;;;;;3.13;1.20;;;;;;;21.25;55.40;101201.47;5039706;28;20036;-60
2021/08/13 02:46:39;;;;;;;4.53;1.15;;;;;;;21.23;55.62;101198.97;5057217;28;20213;-59
2021/08/13 02:49:08;;;;;;;3.33;1.10;;;;;;;21.26;55.68;101194.28;5049604;28;20094;-59
2021/08/13 02:51:36;;;;;;;4.43;1.38;;;;;;;21.26;55.49;101205.78;5055328;28;20421;-59
2021/08/13 02:54:01;;;;;;;3.63;1.20;;;;;;;21.26;55.60;101203.09;5046938;28;20044;-59
2021/08/13 02:56:32;;;;;;;4.85;1.05;;;;;;;21.26;55.47;101204.94;5066305;28;20025;-59
2021/08/13 02:59:03;;;;;;;4.50;1.80;;;;;;;21.24;55.44;101197.13;5056631;28;20448;-59
2021/08/13 03:01:32;;;;;;;3.45;1.10;;;;;;;21.26;55.69;101196.94;5061220;28;20035;-59
2021/08/13 03:04:00;;;;;;;3.17;1.02;;;;;;;21.26;55.72;101208.44;5068230;28;20056;-59
2021/08/13 03:06:33;;;;;;;3.13;1.00;;;;;;;21.24;55.65;101202.44;5049884;28;20068;-60
2021/08/13 03:09:00;;;;;;;4.53;1.13;;;;;;;21.26;55.52;101202.28;5061068;28;20378;-59
2021/08/13 03:11:27;;;;;;;4.40;1.20;;;;;;;21.24;55.65;101202.44;5064834;28;20044;-59
2021/08/13 03:13:53;;;;;;;5.93;1.40;;;;;;;21.25;55.39;101209.47;5059807;28;20049;-59
2021/08/13 03:16:19;;;;;;;3.63;0.93;;;;;;;21.23;55.57;101206.97;5050275;28;20135;-59
2021/08/13 03:18:45;;;;;;;5.00;1.30;;;;;;;21.24;55.57;101221.13;5068392;28;20124;-59
2021/08/13 03:21:14;;;;;;;3.60;1.30;;;;;;;21.24;55.49;101223.78;5049452;28;20036;-60
2021/08/13 03:23:40;;;;;;;5.10;1.25;;;;;;;21.25;55.70;101219.31;5053918;28;20109;-59
2021/08/13 03:26:07;;;;;;;4.82;1.20;;;;;;;21.24;55.61;101221.13;5046299;28;20065;-60
2021/08/13 03:28:36;;;;;;;4.88;1.20;;;;;;;21.23;55.53;101222.97;5056155;28;20044;-60
2021/08/13 03:31:02;;;;;;;2.78;1.00;;;;;;;21.25;55.62;101228.13;5067901;28;20029;-59
2021/08/13 03:33:28;;;;;;;5.15;1.40;;;;;;;21.24;55.32;101221.13;5064460;28;20111;-59
2021/08/13 03:35:55;;;;;;;4.63;1.23;;;;;;;21.24;55.38;101221.13;5053935;28;20025;-59
2021/08/13 03:38:20;;;;;;;3.72;1.10;;;;;;;21.23;55.65;101214.16;5038886;28;20464;-59
2021/08/13 03:40:45;;;;;;;4.20;1.13;;;;;;;21.23;55.33;101222.16;5066369;28;20079;-59
2021/08/13 03:43:11;;;;;;;4.30;1.20;;;;;;;21.23;55.74;101222.16;5043939;28;20060;-59
2021/08/13 03:45:36;;;;;;;4.18;1.30;;;;;;;21.23;55.49;101232.81;5067726;28;20034;-60
2021/08/13 03:48:02;;;;;;;3.58;1.25;;;;;;;21.23;55.68;101227.50;5055675;28;20025;-59
2021/08/13 03:50:28;;;;;;;3.65;1.30;;;;;;;21.22;55.30;101223.19;5034993;28;20330;-59
2021/08/13 03:52:53;;;;;;;4.13;1.25;;;;;;;21.23;55.31;101227.50;5068399;28;20060;-59
2021/08/13 03:55:19;;;;;;;4.65;1.40;;;;;;;21.22;55.55;101220.50;5036751;28;20032;-60
2021/08/13 03:57:44;;;;;;;3.65;1.20;;;;;;;21.22;55.61;101209.84;5060793;28;20040;-60
2021/08/13 04:00:11;;;;;;;3.72;1.00;;;;;;;21.22;55.65;101212.50;5069118;28;20382;-59
2021/08/13 04:02:36;;;;;;;6.00;1.40;;;;;;;21.22;55.50;101209.84;5031731;28;20567;-60
2021/08/13 04:05:03;;;;;;;4.95;1.30;;;;;;;21.21;55.63;101217.00;5048474;28;20111;-59
2021/08/13 04:07:28;;;;;;;4.82;1.60;;;;;;;21.21;55.33;101205.53;5040799;28;20123;-59
2021/08/13 04:09:53;;;;;;;3.92;1.15;;;;;;;21.21;55.56;101218.84;5071017;28;20036;-59
2021/08/13 04:12:19;;;;;;;3.38;0.98;;;;;;;21.21;55.50;101208.19;5046641;28;20039;-60
2021/08/13 04:14:45;;;;;;;5.32;1.20;;;;;;;21.21;55.17;101203.69;5062590;28;20060;-59
2021/08/13 04:17:10;;;;;;;3.50;1.40;;;;;;;21.20;55.48;101202.03;5047908;28;20135;-59
2021/08/13 04:19:36;;;;;;;4.10;1.27;;;;;;;21.20;55.40;101201.22;5043730;28;20685;-60
2021/08/13 04:22:02;;;;;;;4.97;1.10;;;;;;;21.20;55.31;101207.38;5064059;28;20059;-59
2021/08/13 04:24:28;;;;;;;5.07;1.30;;;;;;;21.20;55.40;101201.22;5048935;28;20545;-59
2021/08/13 04:26:53;;;;;;;3.83;1.17;;;;;;;21.19;55.16;101218.25;5033293;28;20041;-59
2021/08/13 04:29:19;;;;;;;4.10;1.25;;;;;;;21.19;55.57;101212.91;5063631;28;20126;-59
2021/08/13 04:31:45;;;;;;;4.38;1.10;;;;;;;21.19;55.06;101220.91;5036927;28;20492;-59
2021/08/13 04:34:10;;;;;;;3.67;1.20;;;;;;;21.19;55.55;101220.91;5049481;28;20142;-59
2021/08/13 04:36:36;;;;;;;3.08;1.08;;;;;;;21.19;55.35;101228.91;5056939;28;20036;-59
2021/08/13 04:39:01;;;;;;;5.30;1.42;;;;;;;21.18;55.19;101222.75;5059801;28;20048;-59
2021/08/13 04:41:26;;;;;;;3.03;1.27;;;;;;;21.18;55.73;101221.94;5044995;28;20045;-59
2021/08/13 04:43:52;;;;;;;3.08;1.10;;;;;;;21.18;55.57;101225.41;5063602;28;20035;-60
2021/08/13 04:46:17;;;;;;;3.00;1.05;;;;;;;21.18;55.60;101219.25;5065304;28;20137;-59
2021/08/13 04:48:43;;;;;;;2.50;1.10;;;;;;;21.17;55.49;101237.13;5060310;28;20547;-59
2021/08/13 04:51:09;;;;;;;2.47;1.20;;;;;;;21.17;55.33;101239.78;5069553;28;20036;-59
2021/08/13 04:53:34;;;;;;;4.03;1.13;;;;;;;21.19;55.63;101250.25;5062687;28;20095;-59
2021/08/13 04:55:59;;;;;;;3.95;1.20;;;;;;;21.18;55.49;101243.28;5063724;28;20424;-59
2021/08/13 04:58:25;;;;;;;4.30;1.30;;;;;;;21.18;55.45;101243.28;5054870;28;20125;-59
2021/08/13 05:00:50;;;;;;;5.05;1.20;;;;;;;21.17;55.23;101249.63;5058276;28;20044;-59
2021/08/13 05:03:16;;;;;;;4.18;1.20;;;;;;;21.17;55.27;101245.13;5048173;28;20551;-59
2021/08/13 05:05:42;;;;;;;3.42;1.20;;;;;;;21.17;55.53;101242.44;5032235;28;20128;-59
2021/08/13 05:08:08;;;;;;;3.10;0.90;;;;;;;21.17;55.59;101229.13;5045780;28;20037;-59
2021/08/13 05:10:34;;;;;;;3.20;0.98;;;;;;;21.17;55.34;101231.78;5048649;28;20497;-59
2021/08/13 05:12:59;;;;;;;5.40;1.30;;;;;;;21.17;55.41;101217.63;5063277;28;20037;-59
2021/08/13 05:15:25;;;;;;;4.45;1.20;;;;;;;21.16;55.50;101210.63;5063394;28;20810;-60
2021/08/13 05:17:50;;;;;;;3.97;1.10;;;;;;;21.15;55.74;101209.00;5036169;28;20108;-59
2021/08/13 05:20:17;;;;;;;3.83;0.98;;;;;;;21.15;55.33;101206.31;5042057;28;20504;-59
2021/08/13 05:22:42;;;;;;;4.03;1.40;;;;;;;21.15;55.98;101225.81;5029203;28;20052;-59
2021/08/13 05:25:15;;;;;;;3.53;1.17;;;;;;;21.14;55.47;101226.00;5043049;28;20037;-63
2021/08/13 05:27:41;;;;;;;2.85;1.13;;;;;;;21.15;55.35;101236.50;5036148;28;20135;-59
2021/08/13 05:30:07;;;;;;;4.00;1.10;;;;;;;21.15;55.71;101241.81;5031464;28;20124;-59
2021/08/13 05:32:38;;;;;;;3.97;1.38;;;;;;;21.14;55.58;101236.66;5041325;28;20188;-59
2021/08/13 05:35:03;;;;;;;4.82;1.42;;;;;;;21.15;55.57;101233.81;5041745;28;20032;-59
2021/08/13 05:37:29;;;;;;;4.03;1.13;;;;;;;21.15;55.51;101236.50;5033766;28;20037;-59
2021/08/13 05:39:54;;;;;;;4.72;1.10;;;;;;;21.15;55.30;101249.84;5022675;28;20065;-59
2021/08/13 05:42:19;;;;;;;3.75;1.00;;;;;;;21.14;55.31;101242.00;5045579;28;20120;-59
2021/08/13 05:44:45;;;;;;;5.05;1.40;;;;;;;21.15;55.75;101254.34;5030706;28;20119;-60
2021/08/13 05:47:10;;;;;;;2.67;1.20;;;;;;;21.14;55.40;101256.16;5017352;28;20511;-59
2021/08/13 05:49:36;;;;;;;3.85;1.63;;;;;;;21.15;55.54;101251.69;5047488;28;20042;-60
2021/08/13 05:52:02;;;;;;;2.33;1.00;;;;;;;21.14;55.20;101261.50;5029648;28;20044;-59
2021/08/13 05:54:28;;;;;;;3.15;1.23;;;;;;;21.14;55.48;101256.16;5027444;28;20051;-59
2021/08/13 05:56:53;;;;;;;3.42;1.17;;;;;;;21.14;55.47;101258.00;5024707;28;20033;-59
2021/08/13 05:59:19;;;;;;;4.70;1.20;;;;;;;21.15;55.39;101265.00;5023875;28;20037;-59
2021/08/13 06:01:44;;;;;;;4.50;1.25;;;;;;;21.14;55.37;101276.69;5024461;28;20025;-59
2021/08/13 06:04:09;;;;;;;3.20;1.30;;;;;;;21.13;55.40;101269.69;5048867;28;20076;-59
2021/08/13 06:06:35;;;;;;;4.28;1.13;;;;;;;21.14;55.54;101271.34;5011289;28;21268;-59
2021/08/13 06:09:02;;;;;;;5.85;1.35;;;;;;;21.13;55.03;101275.03;5022298;28;20512;-59
2021/08/13 06:11:27;;;;;;;4.10;1.50;;;;;;;21.13;54.99;101270.50;5040852;28;20495;-59
2021/08/13 06:13:53;;;;;;;3.83;1.00;;;;;;;21.13;55.26;101273.19;5023195;28;20034;-59
2021/08/13 06:16:19;;;;;;;6.05;1.35;;;;;;;21.13;55.48;101267.84;5040331;28;20095;-59
2021/08/13 06:18:45;;;;;;;3.38;1.30;;;;;;;21.14;55.44;101274.00;5031985;28;20040;-59
2021/08/13 06:21:11;;;;;;;5.30;1.35;;;;;;;21.13;55.45;101275.84;5041096;28;20045;-59
2021/08/13 06:23:36;;;;;;;3.38;1.10;;;;;;;21.13;55.25;101281.19;5045600;28;20044;-59
2021/08/13 06:26:01;;;;;;;3.75;1.20;;;;;;;21.13;55.11;101288.38;5027500;28;20116;-59
2021/08/13 06:28:27;;;;;;;3.25;0.90;;;;;;;21.13;55.29;101277.69;5016148;28;20123;-59
2021/08/13 06:30:53;;;;;;;3.75;1.13;;;;;;;21.12;55.04;101284.06;5068384;28;20032;-60
2021/08/13 06:33:18;;;;;;;4.70;1.10;;;;;;;21.12;55.15;101284.88;5036934;28;20036;-59
2021/08/13 06:35:44;;;;;;;3.60;0.93;;;;;;;21.12;55.27;101278.72;5062409;28;20071;-59
2021/08/13 06:38:09;;;;;;;4.10;1.05;;;;;;;21.12;55.11;101278.72;5013815;28;20446;-62
2021/08/13 06:40:35;;;;;;;2.88;1.15;;;;;;;21.11;55.16;101283.22;5049142;28;20505;-59
2021/08/13 06:43:00;;;;;;;3.35;1.30;;;;;;;21.11;55.36;101290.41;5061947;28;20063;-60
2021/08/13 06:45:27;;;;;;;3.75;1.20;;;;;;;21.12;55.33;101281.38;5045106;28;20053;-59
2021/08/13 06:47:52;;;;;;;2.75;1.02;;;;;;;21.11;55.40;101274.41;5049470;28;20048;-59
2021/08/13 06:50:18;;;;;;;3.28;1.17;;;;;;;21.12;55.12;101276.06;5061000;28;20460;-59
2021/08/13 06:52:43;;;;;;;4.93;1.50;;;;;;;21.12;54.97;101273.38;5066727;28;20419;-59
2021/08/13 06:55:10;;;;;;;5.65;1.42;;;;;;;21.11;55.35;101272.56;5054808;28;20495;-59
2021/08/13 06:57:36;;;;;;;2.08;1.00;;;;;;;21.11;55.18;101272.56;5037403;28;20044;-59
2021/08/13 07:00:04;;;;;;;4.30;1.17;;;;;;;21.12;55.42;101289.38;5034186;28;20376;-60
2021/08/13 07:02:30;;;;;;;3.80;1.30;;;;;;;21.12;55.34;101292.06;5046001;28;20037;-59
2021/08/13 07:04:56;;;;;;;6.78;1.27;;;;;;;21.12;55.46;101303.56;5035009;28;20028;-59
2021/08/13 07:07:21;;;;;;;2.88;1.10;;;;;;;21.12;55.38;101303.56;5049285;28;20029;-59
2021/08/13 07:09:47;;;;;;;5.03;1.20;;;;;;;21.12;55.42;101300.88;5066041;28;20044;-59
2021/08/13 07:12:15;;;;;;;4.25;1.10;;;;;;;21.13;55.91;101296.38;5042384;28;20167;-59
2021/08/13 07:14:40;;;;;;;3.85;0.95;;;;;;;21.14;55.87;101316.69;5044119;28;20037;-59
2021/08/13 07:17:06;;;;;;;8.05;1.48;;;;;;;21.14;55.85;101311.34;5045835;28;20489;-59
2021/08/13 07:19:32;;;;;;;6.65;1.30;;;;;;;21.14;56.07;101319.38;5067648;28;20169;-59
2021/08/13 07:21:57;;;;;;;6.03;1.10;;;;;;;21.14;56.51;101308.69;5049138;28;20163;-60
2021/08/13 07:24:23;;;;;;;7.68;1.70;;;;;;;21.15;56.63;101316.53;5029106;28;20334;-59
2021/08/13 07:26:49;;;;;;;8.43;2.15;;;;;;;21.15;56.93;101316.53;5061074;28;20028;-60
2021/08/13 07:29:15;;;;;;;5.32;1.40;;;;;;;21.17;56.78;101319.00;5032086;28;20053;-60
2021/08/13 07:31:40;;;;;;;10.40;2.15;;;;;;;21.17;56.92;101335.00;5060296;28;20400;-60
2021/08/13 07:34:06;;;;;;;7.30;1.98;;;;;;;21.17;56.73;101332.34;5064850;28;20507;-59
2021/08/13 07:36:31;;;;;;;8.00;1.40;;;;;;;21.18;56.65;101325.97;5047320;28;20132;-61
2021/08/13 07:38:57;;;;;;;4.15;1.10;;;;;;;21.18;56.69;101342.00;5060694;28;20039;-60
2021/08/13 07:41:22;;;;;;;9.07;1.83;;;;;;;21.19;56.66;101327.63;5064737;28;20063;-59
2021/08/13 07:43:48;;;;;;;12.32;1.63;;;;;;;21.19;56.58;101339.13;5036542;28;20139;-60
2021/08/13 07:46:13;;;;;;;9.80;2.10;;;;;;;21.20;56.51;101342.63;5055952;28;20040;-59
2021/08/13 07:48:39;;;;;;;17.33;2.25;;;;;;;21.18;56.30;101332.13;5056194;28;20045;-61
2021/08/13 07:51:05;;;;;;;10.20;1.98;;;;;;;21.17;55.83;101329.66;5037826;28;20483;-61
2021/08/13 07:53:30;;;;;;;13.25;2.67;;;;;;;21.16;55.61;101336.03;5059658;28;20407;-60
2021/08/13 07:55:55;;;;;;;10.98;2.28;;;;;;;21.12;55.22;101338.22;5071054;28;20132;-60
2021/08/13 07:58:21;;;;;;;13.52;2.95;;;;;;;21.10;54.88;101337.59;5061046;28;20029;-60
2021/08/13 08:00:47;;;;;;;10.40;2.53;;;;;;;21.07;55.00;101332.66;5039886;28;20045;-60
2021/08/13 08:03:13;;;;;;;10.88;2.50;;;;;;;21.06;54.47;101327.53;5043415;28;20119;-63
2021/08/13 08:05:39;;;;;;;11.77;2.45;;;;;;;21.05;54.28;101328.53;5052465;28;20444;-60
2021/08/13 08:08:05;;;;;;;11.48;2.92;;;;;;;21.03;54.16;101347.41;5054184;28;20060;-60
2021/08/13 08:10:31;;;;;;;10.18;2.10;;;;;;;21.03;54.35;101343.94;5049884;28;20059;-60
2021/08/13 08:12:57;;;;;;;8.57;2.72;;;;;;;21.02;54.19;101334.28;5034314;28;20550;-60
2021/08/13 08:15:22;;;;;;;10.57;2.35;;;;;;;21.01;53.89;101344.13;5031909;28;20557;-60
2021/08/13 08:17:48;;;;;;;13.90;2.97;;;;;;;21.03;53.92;101349.25;5047394;28;20494;-60
2021/08/13 08:20:14;;;;;;;8.63;2.60;;;;;;;21.02;53.75;101352.94;5062608;28;20028;-63
2021/08/13 08:22:39;;;;;;;9.65;2.30;;;;;;;21.01;53.77;101352.13;5062388;28;20037;-60
2021/08/13 08:25:05;;;;;;;10.43;2.60;;;;;;;21.01;53.75;101351.31;5034509;28;20051;-60
2021/08/13 08:27:32;;;;;;;13.43;2.78;;;;;;;21.00;53.57;101349.66;5051765;28;20036;-60
2021/08/13 08:29:57;;;;;;;9.82;2.65;;;;;;;21.00;53.48;101361.16;5036463;28;20097;-60
2021/08/13 08:32:23;;;;;;;10.15;2.45;;;;;;;21.01;53.30;101359.31;5024224;28;20162;-60
2021/08/13 08:34:48;;;;;;;8.40;2.30;;;;;;;21.01;53.61;101361.97;5041211;28;20045;-60
2021/08/13 08:37:14;;;;;;;11.02;2.50;;;;;;;21.01;53.37;101368.13;5053022;28;20037;-61
2021/08/13 08:39:40;;;;;;;9.52;2.30;;;;;;;21.02;53.61;101380.44;5064876;28;20028;-59
2021/08/13 08:42:13;;;;;;;8.68;2.42;;;;;;;20.99;53.44;101378.16;5065085;28;20037;-59
2021/08/13 08:44:39;;;;;;;11.38;2.95;;;;;;;21.01;53.13;101383.31;5038601;28;20033;-60
2021/08/13 08:47:07;;;;;;;9.68;3.00;;;;;;;20.99;53.11;101393.31;5050746;28;20037;-60
2021/08/13 08:49:34;;;;;;;10.18;2.33;;;;;;;20.98;53.10;101373.00;5063286;28;20104;-60
2021/08/13 08:52:00;;;;;;;10.70;2.50;;;;;;;20.97;53.06;101376.69;5062937;28;20472;-60
2021/08/13 08:54:27;;;;;;;9.55;2.70;;;;;;;20.97;53.02;101382.84;5055313;28;20041;-60
2021/08/13 08:56:53;;;;;;;7.80;2.25;;;;;;;20.97;52.80;101371.34;5070460;28;20031;-60
2021/08/13 08:59:22;;;;;;;8.95;2.60;;;;;;;20.96;52.82;101375.03;5070147;28;20044;-60
2021/08/13 09:01:48;;;;;;;8.10;1.90;;;;;;;20.96;52.96;101380.38;5046357;28;20429;-60
2021/08/13 09:04:14;;;;;;;8.93;2.30;;;;;;;20.96;52.77;101375.03;5059321;28;20037;-59
2021/08/13 09:06:43;;;;;;;10.07;2.42;;;;;;;20.96;53.28;101391.03;5079875;28;20028;-60
2021/08/13 09:09:09;;;;;;;8.60;2.10;;;;;;;20.96;53.22;101388.38;5069697;28;20043;-60
2021/08/13 09:11:37;;;;;;;6.65;2.30;;;;;;;20.97;52.79;101382.00;5085904;28;20028;-60
2021/08/13 09:14:08;;;;;;;5.18;1.60;;;;;;;20.96;53.03;101381.19;5081976;28;20020;-60
2021/08/13 09:16:34;;;;;;;6.85;1.85;;;;;;;20.98;53.09;101378.34;5084314;28;20028;-60
2021/08/13 09:19:05;;;;;;;6.97;1.80;;;;;;;20.98;53.06;101379.16;5090120;28;20177;-60
2021/08/13 09:21:32;;;;;;;7.88;1.95;;;;;;;20.99;53.02;101379.97;5089796;28;20028;-60
2021/08/13 09:24:00;;;;;;;7.65;1.85;;;;;;;20.99;52.76;101385.31;5083954;28;20064;-60
2021/08/13 09:26:27;;;;;;;8.48;1.73;;;;;;;21.00;52.71;101376.31;5064133;28;20028;-60
2021/08/13 09:28:59;;;;;;;8.35;2.20;;;;;;;20.99;52.97;101396.84;5070880;28;20060;-60
2021/08/13 09:31:33;;;;;;;8.00;2.13;;;;;;;21.00;52.50;101382.47;5080553;28;20485;-60
2021/08/13 09:34:05;;;;;;;5.88;1.80;;;;;;;20.99;52.79;101387.97;5089647;28;20031;-60
2021/08/13 09:36:33;;;;;;;4.22;1.58;;;;;;;21.00;52.43;101382.47;5078228;28;20032;-60
2021/08/13 09:39:23;;;;;;;8.77;1.65;;;;;;;20.97;52.25;101387.34;5086992;28;20035;-60
2021/08/13 09:41:51;;;;;;;7.38;1.60;;;;;;;20.99;52.11;101385.31;5076791;28;20036;-60
2021/08/13 09:44:31;;;;;;;6.25;1.83;;;;;;;20.95;52.08;101395.53;5071241;28;20126;-60
2021/08/13 09:47:06;;;;;;;8.45;1.70;;;;;;;20.96;52.15;101399.03;5082719;28;20043;-60
2021/08/13 09:49:33;;;;;;;6.22;1.73;;;;;;;20.97;51.95;101398.03;5085561;28;20031;-60
2021/08/13 09:52:18;;;;;;;6.65;1.92;;;;;;;20.96;52.31;101407.03;5087280;28;20036;-60
2021/08/13 09:54:45;;;;;;;8.32;1.95;;;;;;;20.99;52.26;101401.31;5085322;28;20031;-60
2021/08/13 09:57:13;;;;;;;6.72;2.00;;;;;;;21.00;51.93;101400.34;5069146;28;20075;-60
2021/08/13 09:59:39;;;;;;;6.28;1.55;;;;;;;20.99;52.13;101398.66;5084275;28;20032;-60
2021/08/13 10:02:14;;;;;;;10.48;1.90;;;;;;;20.96;51.89;101393.69;5070345;28;20032;-60
2021/08/13 10:04:41;;;;;;;7.15;2.05;;;;;;;20.98;52.01;101413.00;5069039;28;20036;-60
2021/08/13 10:07:07;;;;;;;7.15;2.15;;;;;;;20.97;51.83;101414.84;5081727;28;20435;-60
2021/08/13 10:09:32;;;;;;;9.02;2.00;;;;;;;20.97;51.73;101419.34;5081906;28;20040;-60
2021/08/13 10:12:01;;;;;;;8.52;1.67;;;;;;;20.97;52.07;101417.50;5083674;28;20831;-60
2021/08/13 10:14:31;;;;;;;8.48;1.73;;;;;;;20.96;51.82;101417.72;5068550;28;20116;-60
2021/08/13 10:17:10;;;;;;;6.90;1.65;;;;;;;20.93;51.61;101413.59;5086952;28;20409;-60
2021/08/13 10:19:47;;;;;;;9.68;2.03;;;;;;;20.96;51.77;101415.88;5089253;28;20024;-60
2021/08/13 10:22:16;;;;;;;7.55;1.83;;;;;;;20.96;51.69;101415.03;5088567;28;20048;-60
2021/08/13 10:24:46;;;;;;;5.03;1.38;;;;;;;20.94;51.59;101434.72;5076512;28;20691;-60
2021/08/13 10:27:14;;;;;;;9.48;2.00;;;;;;;20.94;51.90;101429.41;5087152;28;20047;-60
2021/08/13 10:29:41;;;;;;;7.88;2.38;;;;;;;20.94;51.83;101429.41;5078096;28;20136;-60
2021/08/13 10:32:07;;;;;;;7.20;1.77;;;;;;;20.94;51.70;101437.41;5081782;28;21466;-61
2021/08/13 10:34:32;;;;;;;5.72;1.60;;;;;;;20.93;51.58;101430.41;5059666;28;20028;-60
2021/08/13 10:36:59;;;;;;;10.05;1.83;;;;;;;20.94;51.36;101434.72;5074542;28;20403;-60
2021/08/13 10:39:26;;;;;;;7.35;2.08;;;;;;;20.93;51.77;101443.75;5080921;28;20033;-60
2021/08/13 10:41:59;;;;;;;8.35;2.03;;;;;;;20.93;51.22;101440.25;5082342;28;20054;-60
2021/08/13 10:44:29;;;;;;;7.43;1.90;;;;;;;20.93;51.39;101448.25;5066580;28;20020;-60
2021/08/13 10:47:00;;;;;;;5.38;1.48;;;;;;;20.93;51.44;101458.94;5061187;28;20137;-60
2021/08/13 10:49:26;;;;;;;8.20;1.80;;;;;;;20.94;51.10;101457.91;5081001;28;20550;-60
2021/08/13 10:52:03;;;;;;;12.27;2.38;;;;;;;20.90;51.39;101444.13;5080265;28;20081;-60
2021/08/13 10:54:40;;;;;;;5.32;1.50;;;;;;;20.91;51.06;101440.44;5072800;28;20028;-60
2021/08/13 10:57:06;;;;;;;8.00;1.52;;;;;;;20.95;51.10;101456.88;5077550;28;20024;-60
2021/08/13 10:59:40;;;;;;;5.57;1.80;;;;;;;20.91;50.96;101445.78;5088152;28;20032;-60
2021/08/13 11:02:15;;;;;;;7.22;1.98;;;;;;;20.91;51.18;101451.13;5070619;28;20329;-60
2021/08/13 11:04:47;;;;;;;6.15;1.38;;;;;;;20.90;50.85;101446.81;5086426;28;20398;-60
2021/08/13 11:07:14;;;;;;;4.10;1.55;;;;;;;20.92;50.86;101449.28;5085217;28;20032;-60
2021/08/13 11:09:41;;;;;;;8.13;1.92;;;;;;;20.91;50.92;101459.13;5071955;28;20037;-61
2021/08/13 11:12:14;;;;;;;5.35;1.65;;;;;;;20.91;50.85;101439.63;5058715;28;20041;-60
2021/08/13 11:14:52;;;;;;;6.45;1.60;;;;;;;20.91;50.84;101455.63;5072138;28;20032;-60
2021/08/13 11:17:32;;;;;;;7.38;1.60;;;;;;;20.89;50.57;101457.66;5059131;28;20098;-60
2021/08/13 11:19:59;;;;;;;6.40;1.60;;;;;;;20.93;50.52;101450.94;5071919;28;20083;-60
2021/08/13 11:22:31;;;;;;;8.23;1.75;;;;;;;20.91;50.84;101455.63;5079345;28;20111;-60
2021/08/13 11:24:57;;;;;;;4.78;1.90;;;;;;;20.93;50.40;101456.25;5078268;28;20028;-60